Time;durP1;ratioP1;P1;durP2;ratioP2;P2;SDS_P1;SDS_P2;PMS_P1;PMS_P2;Temp;Humidity;BMP_temperature;BMP_pressure;BME280_temperature;BME280_humidity;BME280_pressure;Samples;Min_cycle;Max_cycle;Signal;HPM_P1;HPM_P2
2022/09/11 00:01:13;;;;;;;1.10;1.00;;;26.60;75.50;;;;;;5074539;28;20440;-86
2022/09/11 00:03:40;;;;;;;1.20;1.10;;;26.60;75.50;;;;;;5074530;28;20852;-87
2022/09/11 00:06:09;;;;;;;1.97;1.10;;;26.60;75.60;;;;;;5074542;28;20519;-86
2022/09/11 00:08:37;;;;;;;1.10;1.00;;;26.60;75.50;;;;;;5080493;28;20444;-87
2022/09/11 00:11:06;;;;;;;1.30;1.20;;;26.60;75.40;;;;;;5094477;28;21001;-87
2022/09/11 00:13:34;;;;;;;1.30;1.20;;;26.60;75.50;;;;;;5094710;28;20491;-87
2022/09/11 00:16:02;;;;;;;1.33;1.23;;;26.60;75.50;;;;;;5094437;28;20453;-87
2022/09/11 00:18:30;;;;;;;1.30;1.20;;;26.60;75.40;;;;;;5094541;28;20503;-86
2022/09/11 00:20:58;;;;;;;1.10;1.00;;;26.60;75.30;;;;;;5094493;28;20451;-87
2022/09/11 00:23:26;;;;;;;1.20;1.10;;;26.60;75.30;;;;;;5094285;28;20466;-87
2022/09/11 00:25:54;;;;;;;1.20;1.10;;;26.60;75.30;;;;;;5094445;28;20436;-86
2022/09/11 00:28:23;;;;;;;1.23;1.13;;;26.60;75.40;;;;;;5094240;28;20435;-86
2022/09/11 00:30:58;;;;;;;1.30;1.20;;;26.60;75.40;;;;;;5094080;28;20436;-87
2022/09/11 00:33:26;;;;;;;2.43;1.10;;;26.60;75.40;;;;;;5107265;28;20575;-86
2022/09/11 00:35:57;;;;;;;1.20;1.10;;;26.60;75.30;;;;;;5114394;28;20955;-87
2022/09/11 00:38:25;;;;;;;1.33;1.23;;;26.60;76.10;;;;;;5114716;28;20446;-87
2022/09/11 00:40:53;;;;;;;1.13;1.03;;;26.50;75.30;;;;;;5114488;28;20466;-87
2022/09/11 00:43:20;;;;;;;1.40;1.30;;;26.50;75.30;;;;;;5113762;28;20521;-86
2022/09/11 00:45:52;;;;;;;1.50;1.27;;;26.50;75.30;;;;;;5115097;28;20437;-86
2022/09/11 00:48:23;;;;;;;1.20;1.10;;;26.50;75.30;;;;;;5110352;28;20849;-85
2022/09/11 00:50:51;;;;;;;5.47;1.30;;;26.50;75.30;;;;;;5094245;28;20479;-86
2022/09/11 00:53:23;;;;;;;1.20;1.10;;;26.50;75.40;;;;;;5093662;28;20570;-86
2022/09/11 00:55:54;;;;;;;1.83;1.40;;;26.50;75.40;;;;;;5093782;28;21006;-86
2022/09/11 00:58:25;;;;;;;1.40;1.30;;;26.50;76.10;;;;;;5094154;28;20769;-86
2022/09/11 01:00:53;;;;;;;1.40;1.17;;;26.50;75.30;;;;;;5093831;28;20438;-86
2022/09/11 01:03:20;;;;;;;1.37;1.27;;;26.50;75.30;;;;;;5093884;28;20446;-86
2022/09/11 01:05:48;;;;;;;1.23;1.13;;;26.50;75.30;;;;;;5093769;28;20515;-85
2022/09/11 01:08:15;;;;;;;1.33;1.23;;;26.50;75.30;;;;;;5093894;28;20439;-85
2022/09/11 01:10:52;;;;;;;2.70;1.50;;;26.50;75.20;;;;;;5093711;28;20443;-85
2022/09/11 01:13:31;;;;;;;1.20;1.10;;;26.50;76.00;;;;;;5093588;28;20490;-86
2022/09/11 01:16:09;;;;;;;1.17;1.07;;;26.50;75.30;;;;;;5094031;28;20565;-85
2022/09/11 01:18:43;;;;;;;1.20;1.10;;;26.50;75.30;;;;;;5113696;28;20447;-85
2022/09/11 01:21:41;;;;;;;1.47;1.37;;;26.40;75.20;;;;;;5114082;28;20431;-85
2022/09/11 01:24:19;;;;;;;1.40;1.30;;;26.40;75.20;;;;;;5105796;28;20472;-85
2022/09/11 01:27:16;;;;;;;1.50;1.40;;;26.40;75.20;;;;;;5113956;28;20442;-85
2022/09/11 01:29:50;;;;;;;1.50;1.40;;;26.40;75.10;;;;;;5113934;28;20793;-85
2022/09/11 01:32:22;;;;;;;3.97;1.30;;;26.40;75.30;;;;;;5113714;28;20479;-85
2022/09/11 01:34:56;;;;;;;1.80;1.70;;;26.40;75.20;;;;;;5113963;28;20519;-88
2022/09/11 01:37:30;;;;;;;1.43;1.33;;;26.40;75.30;;;;;;5114277;28;20439;-84
2022/09/11 01:40:06;;;;;;;1.50;1.40;;;26.40;75.30;;;;;;5095112;28;20930;-86
2022/09/11 01:42:35;;;;;;;1.30;1.20;;;26.40;75.30;;;;;;5093478;28;20444;-84
2022/09/11 01:45:05;;;;;;;1.40;1.30;;;26.30;75.20;;;;;;5101037;28;20503;-85
2022/09/11 01:47:34;;;;;;;1.60;1.50;;;26.40;75.30;;;;;;5105583;28;20477;-84
2022/09/11 01:50:03;;;;;;;1.40;1.30;;;26.30;75.20;;;;;;5113409;28;20439;-85
2022/09/11 01:52:35;;;;;;;1.47;1.37;;;26.40;76.10;;;;;;5113436;28;20513;-84
2022/09/11 01:55:09;;;;;;;1.20;1.10;;;26.40;75.20;;;;;;5115512;28;20443;-85
2022/09/11 01:57:42;;;;;;;1.40;1.30;;;26.40;75.30;;;;;;5117855;28;20439;-84
2022/09/11 02:00:12;;;;;;;1.37;1.27;;;26.30;75.30;;;;;;5117651;28;20443;-84
2022/09/11 02:02:44;;;;;;;1.27;1.17;;;26.30;75.20;;;;;;5117537;28;20932;-85
2022/09/11 02:05:16;;;;;;;2.77;1.30;;;26.50;75.40;;;;;;5117672;28;20763;-84
2022/09/11 02:07:47;;;;;;;1.70;1.60;;;26.40;75.20;;;;;;5117313;28;20443;-84
2022/09/11 02:10:18;;;;;;;1.30;1.20;;;26.40;75.30;;;;;;5117127;28;20427;-85
2022/09/11 02:12:53;;;;;;;1.43;1.33;;;26.40;75.20;;;;;;5117424;28;20476;-84
2022/09/11 02:15:26;;;;;;;1.63;1.20;;;26.40;75.20;;;;;;5116431;28;20516;-85
2022/09/11 02:18:00;;;;;;;1.50;1.40;;;26.40;75.20;;;;;;5096568;28;20965;-85
2022/09/11 02:20:28;;;;;;;1.30;1.20;;;26.40;75.20;;;;;;5096698;28;20447;-84
2022/09/11 02:22:55;;;;;;;1.47;1.37;;;26.40;75.20;;;;;;5097242;28;20435;-84
2022/09/11 02:25:22;;;;;;;1.40;1.30;;;26.40;75.20;;;;;;5096655;28;20440;-85
2022/09/11 02:27:49;;;;;;;1.27;1.17;;;26.40;75.20;;;;;;5097798;28;20447;-85
2022/09/11 02:30:16;;;;;;;1.30;1.20;;;26.40;75.20;;;;;;5116850;28;20445;-84
2022/09/11 02:32:44;;;;;;;1.20;1.10;;;26.50;75.30;;;;;;5116582;28;20489;-84
2022/09/11 02:35:11;;;;;;;1.47;1.37;;;26.40;75.20;;;;;;5116905;28;20778;-86
2022/09/11 02:37:56;;;;;;;2.03;1.20;;;26.40;75.20;;;;;;5117064;28;20438;-84
2022/09/11 02:40:36;;;;;;;1.57;1.47;;;26.40;75.10;;;;;;5116909;28;20437;-85
2022/09/11 02:43:19;;;;;;;1.30;1.20;;;26.40;75.10;;;;;;5116136;28;20443;-86
2022/09/11 02:46:00;;;;;;;1.30;1.20;;;26.40;75.00;;;;;;5116796;28;20445;-84
2022/09/11 02:48:43;;;;;;;1.37;1.27;;;26.40;75.00;;;;;;5116685;28;20462;-84
2022/09/11 02:51:28;;;;;;;1.20;1.10;;;26.40;75.00;;;;;;5116733;28;20460;-84
2022/09/11 02:54:04;;;;;;;1.30;1.20;;;26.40;75.10;;;;;;5116160;28;20486;-84
2022/09/11 02:56:38;;;;;;;1.40;1.30;;;26.40;75.10;;;;;;5095921;28;20464;-84
2022/09/11 02:59:10;;;;;;;1.27;1.17;;;26.40;75.10;;;;;;5095996;28;20442;-84
2022/09/11 03:01:48;;;;;;;1.30;1.20;;;26.40;75.10;;;;;;5096111;28;20440;-84
2022/09/11 03:04:17;;;;;;;1.17;1.07;;;26.40;75.00;;;;;;5095869;28;20458;-85
2022/09/11 03:06:44;;;;;;;1.47;1.37;;;26.40;75.10;;;;;;5095784;28;20829;-84
2022/09/11 03:09:11;;;;;;;1.40;1.30;;;26.40;75.10;;;;;;5095816;28;20448;-85
2022/09/11 03:11:39;;;;;;;1.37;1.27;;;26.40;75.00;;;;;;5095787;28;20454;-85
2022/09/11 03:14:06;;;;;;;1.30;1.20;;;26.40;74.90;;;;;;5095947;28;20472;-85
2022/09/11 03:16:33;;;;;;;1.03;0.93;;;26.40;74.90;;;;;;5110142;28;20463;-84
2022/09/11 03:19:00;;;;;;;1.30;1.20;;;26.40;74.90;;;;;;5116037;28;20883;-84
2022/09/11 03:21:28;;;;;;;1.30;1.20;;;26.40;74.80;;;;;;5115998;28;20445;-85
2022/09/11 03:23:56;;;;;;;1.20;1.10;;;26.40;74.90;;;;;;5099226;28;20502;-84
2022/09/11 03:26:23;;;;;;;1.20;1.10;;;26.40;74.80;;;;;;5117667;28;20531;-85
2022/09/11 03:28:52;;;;;;;1.20;1.10;;;26.40;74.80;;;;;;5138223;28;20435;-85
2022/09/11 03:31:19;;;;;;;1.50;1.40;;;26.40;74.80;;;;;;5135731;28;20510;-83
2022/09/11 03:33:46;;;;;;;1.27;1.17;;;26.40;74.80;;;;;;5121828;28;20495;-86
2022/09/11 03:36:13;;;;;;;1.40;1.30;;;26.40;74.80;;;;;;5116365;28;20441;-85
2022/09/11 03:38:41;;;;;;;1.43;1.33;;;26.40;75.00;;;;;;5116089;28;20483;-85
2022/09/11 03:41:09;;;;;;;1.33;1.23;;;26.40;74.80;;;;;;5116006;28;20438;-85
2022/09/11 03:43:36;;;;;;;1.50;1.40;;;26.40;74.80;;;;;;5115647;28;20500;-85
2022/09/11 03:46:03;;;;;;;1.23;1.10;;;26.40;74.90;;;;;;5115403;28;20517;-85
2022/09/11 03:48:30;;;;;;;1.10;1.00;;;26.40;74.80;;;;;;5115310;28;20455;-85
2022/09/11 03:50:57;;;;;;;1.20;1.10;;;26.40;74.80;;;;;;5106897;28;20442;-85
2022/09/11 03:53:25;;;;;;;1.00;0.90;;;26.40;74.80;;;;;;5095034;28;20483;-86
2022/09/11 03:55:53;;;;;;;1.30;1.20;;;26.40;74.80;;;;;;5094969;28;20479;-86
2022/09/11 03:58:20;;;;;;;1.40;1.30;;;26.40;74.80;;;;;;5095104;28;20937;-84
2022/09/11 04:00:47;;;;;;;1.40;1.30;;;26.40;74.80;;;;;;5095048;28;20442;-85
2022/09/11 04:03:15;;;;;;;1.10;1.00;;;26.40;74.80;;;;;;5094999;28;20501;-83
2022/09/11 04:05:43;;;;;;;1.30;1.20;;;26.40;74.80;;;;;;5094937;28;20432;-84
2022/09/11 04:08:11;;;;;;;1.40;1.30;;;26.40;74.80;;;;;;5095115;28;20527;-85
2022/09/11 04:10:38;;;;;;;1.20;1.10;;;26.40;74.80;;;;;;5095195;28;20443;-85
2022/09/11 04:13:06;;;;;;;1.50;1.40;;;26.40;74.80;;;;;;5094623;28;20468;-84
2022/09/11 04:15:34;;;;;;;1.17;1.07;;;26.40;74.80;;;;;;5102835;28;20435;-85
2022/09/11 04:18:05;;;;;;;1.50;1.40;;;26.40;74.80;;;;;;5114102;28;20494;-85
2022/09/11 04:20:32;;;;;;;1.17;1.07;;;26.40;74.70;;;;;;5115052;28;20446;-84
2022/09/11 04:22:59;;;;;;;1.37;1.27;;;26.40;74.70;;;;;;5115081;28;20439;-84
2022/09/11 04:25:26;;;;;;;1.43;1.33;;;26.40;74.70;;;;;;5114849;28;20428;-84
2022/09/11 04:27:52;;;;;;;1.20;1.10;;;26.40;74.70;;;;;;5114969;28;20511;-84
2022/09/11 04:30:21;;;;;;;1.40;1.30;;;26.40;74.70;;;;;;5114870;28;20442;-84
2022/09/11 04:32:49;;;;;;;1.30;1.20;;;26.40;74.80;;;;;;5114595;28;20497;-85
2022/09/11 04:35:16;;;;;;;1.43;1.33;;;26.40;74.70;;;;;;5115095;28;20922;-85
2022/09/11 04:37:42;;;;;;;1.30;1.20;;;26.40;74.70;;;;;;5114632;28;20437;-84
2022/09/11 04:40:10;;;;;;;1.37;1.27;;;26.40;74.70;;;;;;5114884;28;20455;-84
2022/09/11 04:42:37;;;;;;;1.27;1.17;;;26.40;74.70;;;;;;5114641;28;20818;-84
2022/09/11 04:45:04;;;;;;;1.17;1.07;;;26.40;74.70;;;;;;5114756;28;20443;-86
2022/09/11 04:47:32;;;;;;;1.50;1.40;;;26.40;74.80;;;;;;5105406;28;20463;-84
2022/09/11 04:50:01;;;;;;;1.70;1.60;;;26.40;74.80;;;;;;5114293;28;20443;-85
2022/09/11 04:52:27;;;;;;;1.13;1.03;;;26.40;74.80;;;;;;5114407;28;20951;-84
2022/09/11 04:54:55;;;;;;;1.30;1.20;;;26.40;74.70;;;;;;5114575;28;21018;-85
2022/09/11 04:57:22;;;;;;;1.20;1.10;;;26.40;74.70;;;;;;5114093;28;20435;-86
2022/09/11 04:59:50;;;;;;;1.10;1.00;;;26.40;74.80;;;;;;5114226;28;20449;-85
2022/09/11 05:02:17;;;;;;;1.23;1.13;;;26.40;74.80;;;;;;5114201;28;20451;-85
2022/09/11 05:04:45;;;;;;;1.40;1.30;;;26.40;74.80;;;;;;5114251;28;20439;-84
2022/09/11 05:07:13;;;;;;;1.30;1.20;;;26.40;74.80;;;;;;5114078;28;20435;-85
2022/09/11 05:09:40;;;;;;;1.20;1.10;;;26.30;74.70;;;;;;5114315;28;20537;-85
2022/09/11 05:12:09;;;;;;;1.30;1.20;;;26.30;74.70;;;;;;5114500;28;20439;-84
2022/09/11 05:14:36;;;;;;;1.50;1.40;;;26.40;74.80;;;;;;5112218;28;20514;-85
2022/09/11 05:17:03;;;;;;;1.43;1.33;;;26.30;74.70;;;;;;5093494;28;20539;-86
2022/09/11 05:19:30;;;;;;;1.10;1.00;;;26.40;74.70;;;;;;5093696;28;20440;-86
2022/09/11 05:21:58;;;;;;;1.40;1.30;;;26.30;74.70;;;;;;5094247;28;20795;-85
2022/09/11 05:24:25;;;;;;;1.20;1.10;;;26.30;74.70;;;;;;5094442;28;20450;-85
2022/09/11 05:26:52;;;;;;;1.30;1.20;;;26.40;74.70;;;;;;5094301;28;20572;-85
2022/09/11 05:29:19;;;;;;;1.40;1.30;;;26.40;74.80;;;;;;5095631;28;20522;-86
2022/09/11 05:31:46;;;;;;;1.10;1.00;;;26.40;74.80;;;;;;5097498;28;20439;-88
2022/09/11 05:34:13;;;;;;;1.30;1.20;;;26.30;74.70;;;;;;5097732;28;20859;-87
2022/09/11 05:36:40;;;;;;;1.87;1.37;;;26.30;74.70;;;;;;5097844;28;20531;-86
2022/09/11 05:39:09;;;;;;;1.50;1.40;;;26.30;74.70;;;;;;5080670;28;20445;-87
2022/09/11 05:41:36;;;;;;;1.10;1.00;;;26.40;74.80;;;;;;5077237;28;20447;-86
2022/09/11 05:44:03;;;;;;;1.57;1.47;;;26.40;74.90;;;;;;5097428;28;20440;-87
2022/09/11 05:46:30;;;;;;;1.50;1.40;;;26.40;74.70;;;;;;5097335;28;20978;-87
2022/09/11 05:48:57;;;;;;;1.30;1.20;;;26.40;74.90;;;;;;5097556;28;20538;-87
2022/09/11 05:51:24;;;;;;;1.60;1.50;;;26.30;74.80;;;;;;5097437;28;20444;-87
2022/09/11 05:53:53;;;;;;;1.57;1.47;;;26.30;74.90;;;;;;5097437;28;20509;-87
2022/09/11 05:56:23;;;;;;;12.80;10.40;;;26.40;75.00;;;;;;5097717;28;20935;-86
2022/09/11 05:58:51;;;;;;;6.67;6.10;;;26.30;75.40;;;;;;5097280;28;20526;-87
2022/09/11 06:01:19;;;;;;;3.63;3.43;;;26.20;75.80;;;;;;5097399;28;20436;-87
2022/09/11 06:03:48;;;;;;;2.20;1.77;;;26.20;75.50;;;;;;5097282;28;20460;-88
2022/09/11 06:06:16;;;;;;;5.10;2.00;;;26.30;75.50;;;;;;5097446;28;20909;-87
2022/09/11 06:08:43;;;;;;;1.93;1.83;;;26.30;75.40;;;;;;5097393;28;20443;-87
2022/09/11 06:11:12;;;;;;;2.23;2.13;;;26.30;75.50;;;;;;5097090;28;20443;-88
2022/09/11 06:13:41;;;;;;;1.90;1.80;;;26.30;76.40;;;;;;5096958;28;20509;-87
2022/09/11 06:16:10;;;;;;;2.23;1.60;;;26.30;75.40;;;;;;5097316;28;20479;-87
2022/09/11 06:18:37;;;;;;;2.40;1.90;;;26.30;75.40;;;;;;5097001;28;20435;-87
2022/09/11 06:21:06;;;;;;;2.00;1.90;;;26.30;75.60;;;;;;5096904;28;20442;-88
2022/09/11 06:23:34;;;;;;;1.77;1.60;;;26.30;75.50;;;;;;5096910;28;20483;-87
2022/09/11 06:26:05;;;;;;;3.90;3.60;;;26.30;75.60;;;;;;5096849;28;20444;-88
2022/09/11 06:28:34;;;;;;;6.00;5.10;;;26.30;75.50;;;;;;5097008;28;20450;-88
2022/09/11 06:31:04;;;;;;;2.67;2.57;;;26.30;76.50;;;;;;5096592;28;20535;-87
2022/09/11 06:33:32;;;;;;;2.40;2.10;;;26.30;75.70;;;;;;5110257;28;20927;-88
2022/09/11 06:36:00;;;;;;;3.00;2.07;;;26.30;75.70;;;;;;5116847;28;20918;-89
2022/09/11 06:38:28;;;;;;;2.23;2.13;;;26.30;75.70;;;;;;5117047;28;20457;-88
2022/09/11 06:40:55;;;;;;;3.77;1.90;;;26.30;75.60;;;;;;5116571;28;20443;-88
2022/09/11 06:43:22;;;;;;;1.90;1.80;;;26.30;75.60;;;;;;5117434;28;20447;-88
2022/09/11 06:45:49;;;;;;;1.90;1.67;;;26.30;75.60;;;;;;5116780;28;20474;-89
2022/09/11 06:48:18;;;;;;;2.33;2.23;;;26.30;75.50;;;;;;5116837;28;20884;-88
2022/09/11 06:50:46;;;;;;;2.63;2.27;;;26.30;75.50;;;;;;5116719;28;20439;-88
2022/09/11 06:53:14;;;;;;;1.60;1.50;;;26.30;75.60;;;;;;5116729;28;20447;-87
2022/09/11 06:55:41;;;;;;;3.10;1.90;;;26.30;75.50;;;;;;5116238;28;20485;-87
2022/09/11 06:58:09;;;;;;;2.03;1.93;;;26.30;75.60;;;;;;5116287;28;20439;-88
2022/09/11 07:00:36;;;;;;;1.67;1.57;;;26.30;75.60;;;;;;5116440;28;20438;-88
2022/09/11 07:03:03;;;;;;;1.57;1.47;;;26.40;75.60;;;;;;5116489;28;20439;-89
2022/09/11 07:05:32;;;;;;;1.73;1.63;;;26.30;75.50;;;;;;5116174;28;20445;-87
2022/09/11 07:07:59;;;;;;;12.33;11.17;;;26.30;75.50;;;;;;5115965;28;20507;-88
2022/09/11 07:10:27;;;;;;;14.33;12.93;;;26.20;76.60;;;;;;5116262;28;20962;-86
2022/09/11 07:12:54;;;;;;;10.73;9.73;;;26.00;77.10;;;;;;5116089;28;20486;-87
2022/09/11 07:15:21;;;;;;;10.93;7.67;;;26.10;77.10;;;;;;5116195;28;20487;-87
2022/09/11 07:17:48;;;;;;;7.00;6.50;;;26.00;77.10;;;;;;5116113;28;20546;-87
2022/09/11 07:20:17;;;;;;;6.83;6.13;;;26.10;77.10;;;;;;5115948;28;20427;-87
2022/09/11 07:22:45;;;;;;;7.67;7.07;;;26.10;76.90;;;;;;5116013;28;20442;-87
2022/09/11 07:25:14;;;;;;;6.17;5.57;;;26.10;76.90;;;;;;5115957;28;20439;-86
2022/09/11 07:27:41;;;;;;;3.87;3.57;;;26.10;76.80;;;;;;5116240;28;20914;-86
2022/09/11 07:30:10;;;;;;;3.50;3.30;;;26.10;76.40;;;;;;5115832;28;20431;-86
2022/09/11 07:32:37;;;;;;;6.87;6.27;;;26.20;76.20;;;;;;5115581;28;20517;-87
2022/09/11 07:35:04;;;;;;;4.80;4.50;;;26.10;76.80;;;;;;5115710;28;20489;-86
2022/09/11 07:37:33;;;;;;;3.50;3.30;;;26.10;76.50;;;;;;5115590;28;20518;-87
2022/09/11 07:40:01;;;;;;;3.73;3.40;;;26.20;76.30;;;;;;5115548;28;20439;-87
2022/09/11 07:42:28;;;;;;;3.47;3.27;;;26.20;76.20;;;;;;5115667;28;20443;-87
2022/09/11 07:44:56;;;;;;;3.90;3.60;;;26.20;76.10;;;;;;5115711;28;20831;-89
2022/09/11 07:47:22;;;;;;;3.63;3.43;;;26.20;76.10;;;;;;5115224;28;20459;-87
2022/09/11 07:49:49;;;;;;;3.70;3.50;;;26.20;76.00;;;;;;5115625;28;20469;-87
2022/09/11 07:52:17;;;;;;;3.40;3.20;;;26.20;75.90;;;;;;5115482;28;20496;-86
2022/09/11 07:54:44;;;;;;;3.50;3.20;;;26.20;75.80;;;;;;5115121;28;20509;-86
2022/09/11 07:57:12;;;;;;;3.37;3.17;;;26.20;75.80;;;;;;5115455;28;20439;-85
2022/09/11 07:59:39;;;;;;;3.57;3.37;;;26.30;75.80;;;;;;5119825;28;20449;-86
2022/09/11 08:02:06;;;;;;;3.10;3.00;;;26.30;75.70;;;;;;5124970;28;20435;-86
2022/09/11 08:04:33;;;;;;;3.60;3.40;;;26.30;75.70;;;;;;5127212;28;20465;-82
2022/09/11 08:07:00;;;;;;;2.90;2.80;;;26.30;75.70;;;;;;5119305;28;20454;-86
2022/09/11 08:09:27;;;;;;;6.30;5.90;;;26.30;75.70;;;;;;5086789;28;20447;-85
2022/09/11 08:11:57;;;;;;;10.50;9.60;;;26.20;75.80;;;;;;5115122;28;20465;-87
2022/09/11 08:14:26;;;;;;;8.63;8.03;;;26.00;77.20;;;;;;5114580;28;20490;-87
2022/09/11 08:16:53;;;;;;;8.40;7.60;;;25.90;77.60;;;;;;5114716;28;21048;-87
2022/09/11 08:19:21;;;;;;;4.90;4.50;;;26.00;77.30;;;;;;5115989;28;20454;-86
2022/09/11 08:21:51;;;;;;;4.60;3.97;;;26.10;77.10;;;;;;5117617;28;20977;-89
